Etusivu
METAR-TAF:

METAR-TAF

Lentoasemat :

Sotilaslentoasema

Hachinohe, Japani

Leveyspiiri: 40-33N, Pituuspiiri: 141-28E, korkeus merenpinnasta: 46 m

Tämänhetkinen sää

Tämä raportti tehtiin 16 tuntia ja 57 minuuttia sitten, kello 07.50 UTC
Tuuli 10 kn lännestä/luoteesta
Lämpötila -1°C
Kosteus 93%
Ilmanpaine 1021 hPa
Näkyvyys: 5000 m
Muutamia pilviä 1000 ft:n korkeudessa
Hajanaisia pilviä 1500 ft:n korkeudessa
Hajonneita pilviä 3000 ft:n korkeudessa
heikkoja lumikuuroja

METAR: RJSH 140750Z 30010KT 5000 -SHSN FEW010 SCT015 BKN030 M01/M02 Q1021 RMK 1ST010 3CU015 7CU030 A3015

Aika: 09:47 (00:47 UTC)


TAF: puuttuu

Säähavainnot ja -ennusteet yli 4000 lentoasemalta (METAR- ja TAF-raportit).

Käytössä olevat sääasemat on merkitty karttaan keltaisilla ja punaisilla pisteillä.

Aseta hiiri pisteen päälle nähdäksesi sääaseman nimen.

Klikkaa sitten nähdäksesi säähavainnot ja -ennusteet.

Kartan vaihtaminen: klikkaa mustalla rastilla varustettuja vihreitä pisteitä, niin voit zoomata sisään; viivalla varustettua vihreää pistettä, niin voit zoomata ulos tai vihreitä nuolia, niin pääset viereisille kartoille.


METAR-TAF: